createdAt,value
2022-11-08T00:01:37.076Z,9.31
2022-11-08T00:04:07.721Z,9.23
2022-11-08T00:06:52.779Z,9.14
2022-11-08T00:09:38.059Z,9.09
2022-11-08T00:12:23.161Z,9.05
2022-11-08T00:14:49.613Z,9.04
2022-11-08T00:17:16.994Z,8.98
2022-11-08T00:19:43.576Z,8.99
2022-11-08T00:22:13.448Z,8.99
2022-11-08T00:24:39.988Z,8.95
2022-11-08T00:27:07.437Z,8.96
2022-11-08T00:29:34.985Z,8.89
2022-11-08T00:32:01.731Z,8.88
2022-11-08T00:34:28.171Z,8.76
2022-11-08T00:36:54.579Z,8.64
2022-11-08T00:39:21.063Z,8.68
2022-11-08T00:41:47.470Z,8.60
2022-11-08T00:44:13.946Z,8.48
2022-11-08T00:46:41.403Z,8.53
2022-11-08T00:49:08.120Z,8.45
2022-11-08T00:51:34.577Z,8.40
2022-11-08T00:54:00.995Z,8.33
2022-11-08T00:56:27.438Z,8.46
2022-11-08T00:58:53.859Z,8.41
2022-11-08T01:01:20.755Z,8.44
2022-11-08T01:03:47.749Z,8.53
2022-11-08T01:06:14.634Z,8.61
2022-11-08T01:08:41.565Z,8.62
2022-11-08T01:11:09.480Z,8.75
2022-11-08T01:13:35.900Z,8.72
2022-11-08T01:16:06.421Z,8.69
2022-11-08T01:18:33.031Z,8.69
2022-11-08T01:20:59.563Z,8.72
2022-11-08T01:23:25.973Z,8.70
2022-11-08T01:25:52.410Z,8.71
2022-11-08T01:28:19.051Z,8.71
2022-11-08T01:30:46.202Z,8.61
2022-11-08T01:33:13.154Z,8.66
2022-11-08T01:35:40.023Z,8.69
2022-11-08T01:38:06.496Z,8.60
2022-11-08T01:40:33.214Z,8.61
2022-11-08T01:42:59.648Z,8.73
2022-11-08T01:45:44.738Z,8.70
2022-11-08T01:48:11.393Z,8.71
2022-11-08T01:50:37.819Z,8.80
2022-11-08T01:53:04.189Z,8.77
2022-11-08T01:55:31.910Z,8.82
2022-11-08T01:57:59.561Z,9.02
2022-11-08T02:00:25.999Z,9.06
2022-11-08T02:02:56.923Z,9.11
2022-11-08T02:05:26.331Z,9.17
2022-11-08T02:07:58.929Z,9.20
2022-11-08T02:10:28.574Z,9.16
2022-11-08T02:12:54.988Z,9.21
2022-11-08T02:15:21.515Z,9.22
2022-11-08T02:17:47.939Z,9.21
2022-11-08T02:20:14.372Z,9.19
2022-11-08T02:22:46.794Z,9.24
2022-11-08T02:25:13.256Z,9.27
2022-11-08T02:27:39.641Z,9.29
2022-11-08T02:30:06.326Z,9.37
2022-11-08T02:32:42.338Z,9.41
2022-11-08T02:35:10.317Z,9.44
2022-11-08T02:37:36.898Z,9.41
2022-11-08T02:40:04.187Z,9.40
2022-11-08T02:42:30.653Z,9.37
2022-11-08T02:44:57.070Z,9.34
2022-11-08T02:47:24.251Z,9.32
2022-11-08T02:49:50.705Z,9.31
2022-11-08T02:52:17.155Z,9.23
2022-11-08T02:54:43.572Z,9.26
2022-11-08T02:57:09.993Z,9.31
2022-11-08T02:59:36.421Z,9.28
2022-11-08T03:02:02.978Z,9.16
2022-11-08T03:04:29.493Z,9.05
2022-11-08T03:06:55.969Z,8.94
2022-11-08T03:09:22.365Z,8.82
2022-11-08T03:11:48.810Z,8.70
2022-11-08T03:14:15.222Z,8.60
2022-11-08T03:16:41.643Z,8.58
2022-11-08T03:19:08.075Z,8.58
2022-11-08T03:21:35.510Z,8.52
2022-11-08T03:24:02.005Z,8.53
2022-11-08T03:26:28.442Z,8.52
2022-11-08T03:28:55.235Z,8.48
2022-11-08T03:31:21.678Z,8.52
2022-11-08T03:33:48.257Z,8.57
2022-11-08T03:36:14.768Z,8.45
2022-11-08T03:38:41.159Z,8.43
2022-11-08T03:41:07.623Z,8.44
2022-11-08T03:43:34.023Z,8.49
2022-11-08T03:46:00.490Z,8.52
2022-11-08T03:48:26.914Z,8.56
2022-11-08T03:50:53.423Z,8.46
2022-11-08T03:53:19.872Z,8.43
2022-11-08T03:55:46.427Z,8.43
2022-11-08T03:58:12.868Z,8.47
2022-11-08T04:00:39.533Z,8.42
2022-11-08T04:03:05.966Z,8.39
2022-11-08T04:05:32.564Z,8.41
2022-11-08T04:07:59.675Z,8.33
2022-11-08T04:10:26.061Z,8.36
2022-11-08T04:13:11.184Z,8.30
2022-11-08T04:15:37.566Z,8.31
2022-11-08T04:18:22.889Z,8.24
2022-11-08T04:21:07.954Z,8.18
2022-11-08T04:23:35.384Z,8.11
2022-11-08T04:26:02.659Z,8.07
2022-11-08T04:28:32.933Z,8.06
2022-11-08T04:31:00.530Z,8.08
2022-11-08T04:33:26.969Z,8.10
2022-11-08T04:35:53.531Z,8.09
2022-11-08T04:38:20.475Z,8.06
2022-11-08T04:40:47.211Z,8.07
2022-11-08T04:43:13.609Z,8.04
2022-11-08T04:45:40.129Z,8.08
2022-11-08T04:48:06.742Z,7.97
2022-11-08T04:50:33.643Z,7.99
2022-11-08T04:53:00.090Z,7.91
2022-11-08T04:55:26.510Z,7.85
2022-11-08T04:57:53.291Z,7.84
2022-11-08T05:00:19.690Z,7.81
2022-11-08T05:02:46.264Z,7.80
2022-11-08T05:05:12.726Z,7.79
2022-11-08T05:07:39.159Z,7.83
2022-11-08T05:10:05.829Z,7.85
2022-11-08T05:12:32.328Z,7.90
2022-11-08T05:14:58.730Z,7.90
2022-11-08T05:17:25.210Z,7.86
2022-11-08T05:20:10.417Z,7.77
2022-11-08T05:22:55.575Z,7.88
2022-11-08T05:25:22.018Z,7.91
2022-11-08T05:27:48.443Z,7.94
2022-11-08T05:30:14.938Z,8.05
2022-11-08T05:32:41.352Z,7.97
2022-11-08T05:35:07.795Z,7.96
2022-11-08T05:37:34.219Z,7.92
2022-11-08T05:40:00.663Z,7.93
2022-11-08T05:42:27.108Z,7.96
2022-11-08T05:44:53.541Z,7.94
2022-11-08T05:47:20.126Z,7.87
2022-11-08T05:49:46.743Z,7.86
2022-11-08T05:52:13.175Z,7.88
2022-11-08T05:54:39.581Z,8.01
2022-11-08T05:57:06.026Z,7.95
2022-11-08T05:59:32.458Z,8.00
2022-11-08T06:01:58.985Z,7.90
2022-11-08T06:04:25.508Z,7.85
2022-11-08T06:06:51.917Z,7.85
2022-11-08T06:09:18.367Z,7.79
2022-11-08T06:11:44.793Z,7.94
2022-11-08T06:14:11.155Z,7.99
2022-11-08T06:16:37.621Z,7.96
2022-11-08T06:19:04.007Z,7.91
2022-11-08T06:21:30.417Z,7.97
2022-11-08T06:23:56.818Z,8.00
2022-11-08T06:26:23.634Z,7.96
2022-11-08T06:28:50.166Z,7.93
2022-11-08T06:31:16.569Z,8.07
2022-11-08T06:33:42.973Z,8.08
2022-11-08T06:36:09.532Z,8.04
2022-11-08T06:38:35.966Z,8.07
2022-11-08T06:41:02.447Z,8.06
2022-11-08T06:43:28.979Z,8.09
2022-11-08T06:45:55.482Z,8.15
2022-11-08T06:48:21.910Z,8.19
2022-11-08T06:50:48.505Z,8.24
2022-11-08T06:53:15.877Z,8.31
2022-11-08T06:55:42.579Z,8.31
2022-11-08T06:58:09.821Z,8.43
2022-11-08T07:00:36.190Z,8.49
2022-11-08T07:03:03.463Z,8.50
2022-11-08T07:05:30.918Z,8.64
2022-11-08T07:07:58.071Z,8.63
2022-11-08T07:10:25.353Z,8.68
2022-11-08T07:12:58.717Z,8.73
2022-11-08T07:15:25.101Z,8.77
2022-11-08T07:17:51.538Z,8.80
2022-11-08T07:20:17.977Z,8.85
2022-11-08T07:22:44.415Z,8.97
2022-11-08T07:25:10.793Z,9.15
2022-11-08T07:27:37.233Z,9.27
2022-11-08T07:30:03.754Z,9.36
2022-11-08T07:32:30.191Z,9.33
2022-11-08T07:34:56.578Z,9.27
2022-11-08T07:37:23.013Z,9.27
2022-11-08T07:39:49.409Z,9.32
2022-11-08T07:42:15.865Z,9.37
2022-11-08T07:44:42.245Z,9.43
2022-11-08T07:47:08.652Z,9.50
2022-11-08T07:49:35.641Z,9.61
2022-11-08T07:52:02.110Z,9.67
2022-11-08T07:54:28.501Z,9.65
2022-11-08T07:56:55.108Z,9.78
2022-11-08T07:59:21.712Z,9.82
2022-11-08T08:01:48.132Z,10.01
2022-11-08T08:04:14.597Z,10.11
2022-11-08T08:06:40.993Z,10.15
2022-11-08T08:09:07.427Z,10.19
2022-11-08T08:11:34.044Z,10.22
2022-11-08T08:14:00.590Z,10.20
2022-11-08T08:16:26.987Z,10.31
2022-11-08T08:18:56.301Z,10.41
2022-11-08T08:21:23.546Z,10.39
2022-11-08T08:23:49.984Z,10.43
2022-11-08T08:26:16.373Z,10.48
2022-11-08T08:28:42.792Z,10.60
2022-11-08T08:31:09.226Z,10.77
2022-11-08T08:33:36.011Z,11.05
2022-11-08T08:36:02.934Z,11.49
2022-11-08T08:38:30.215Z,11.45
2022-11-08T08:40:56.647Z,11.11
2022-11-08T08:43:23.191Z,11.54
2022-11-08T08:45:49.918Z,11.82
2022-11-08T08:48:16.449Z,12.15
2022-11-08T08:50:42.934Z,12.40
2022-11-08T08:53:10.283Z,12.89
2022-11-08T08:55:38.110Z,12.95
2022-11-08T08:58:04.736Z,12.96
2022-11-08T09:03:18.098Z,13.87
2022-11-08T09:05:46.589Z,14.03
2022-11-08T09:08:14.340Z,13.77
2022-11-08T09:10:41.179Z,14.02
2022-11-08T09:13:07.601Z,14.02
2022-11-08T09:15:34.028Z,14.32
2022-11-08T09:18:00.541Z,14.52
2022-11-08T09:20:26.981Z,14.58
2022-11-08T09:22:53.406Z,14.64
2022-11-08T09:25:19.808Z,14.86
2022-11-08T09:27:46.228Z,15.21
2022-11-08T09:30:12.674Z,15.47
2022-11-08T09:32:59.730Z,15.83
2022-11-08T09:35:25.523Z,16.05
2022-11-08T09:37:55.116Z,16.47
2022-11-08T09:40:30.966Z,16.40
2022-11-08T09:42:57.386Z,16.27
2022-11-08T09:45:25.523Z,16.61
2022-11-08T09:47:55.141Z,16.44
2022-11-08T09:50:36.754Z,16.58
2022-11-08T09:53:21.960Z,16.69
2022-11-08T09:55:58.954Z,16.04
2022-11-08T09:58:30.772Z,16.29
2022-11-08T10:00:57.163Z,16.93
2022-11-08T10:03:24.741Z,16.55
2022-11-08T10:05:58.491Z,15.94
2022-11-08T10:08:35.770Z,16.39
2022-11-08T10:11:07.060Z,16.07
2022-11-08T10:13:37.518Z,16.09
2022-11-08T10:16:07.001Z,16.73
2022-11-08T10:18:48.627Z,17.20
2022-11-08T10:21:19.940Z,16.95
2022-11-08T10:23:48.352Z,15.93
2022-11-08T10:26:16.735Z,15.64
2022-11-08T10:28:50.368Z,15.16
2022-11-08T10:31:17.991Z,14.37
2022-11-08T10:33:57.224Z,13.84
2022-11-08T10:36:40.089Z,13.74
2022-11-08T10:39:09.511Z,13.42
2022-11-08T10:41:54.641Z,13.12
2022-11-08T10:44:21.943Z,12.73
2022-11-08T10:46:48.404Z,12.75
2022-11-08T10:49:19.592Z,12.82
2022-11-08T10:51:46.650Z,12.82
2022-11-08T10:54:33.028Z,12.67
2022-11-08T10:56:59.446Z,12.49
2022-11-08T10:59:29.861Z,12.50
2022-11-08T11:01:56.318Z,12.26
2022-11-08T11:04:27.198Z,12.18
2022-11-08T11:06:53.664Z,12.15
2022-11-08T11:09:21.238Z,12.15
2022-11-08T11:11:55.837Z,12.10
2022-11-08T11:14:22.978Z,12.03
2022-11-08T11:16:52.578Z,12.08
2022-11-08T11:19:18.999Z,11.96
2022-11-08T11:21:45.406Z,11.90
2022-11-08T11:24:15.445Z,11.93
2022-11-08T11:26:46.358Z,11.83
2022-11-08T11:29:19.743Z,11.86
2022-11-08T11:31:47.098Z,11.79
2022-11-08T11:34:16.585Z,11.85
2022-11-08T11:36:43.263Z,11.82
2022-11-08T11:39:14.680Z,11.76
2022-11-08T11:42:31.049Z,11.77
2022-11-08T11:45:06.366Z,11.96
2022-11-08T11:47:53.355Z,11.97
2022-11-08T11:50:36.457Z,12.13
2022-11-08T11:53:06.844Z,12.36
2022-11-08T11:55:38.171Z,12.17
2022-11-08T11:58:23.301Z,12.54
2022-11-08T12:00:51.437Z,12.40
2022-11-08T12:03:36.661Z,12.47
2022-11-08T12:06:28.032Z,12.68
2022-11-08T12:08:58.451Z,12.70
2022-11-08T12:11:27.925Z,12.80
2022-11-08T12:14:13.005Z,12.79
2022-11-08T12:16:46.469Z,12.59
2022-11-08T12:19:21.007Z,12.50
2022-11-08T12:21:56.654Z,12.31
2022-11-08T12:24:38.443Z,12.17
2022-11-08T12:27:23.682Z,12.17
2022-11-08T12:30:03.775Z,12.04
2022-11-08T12:32:52.351Z,12.21
2022-11-08T12:35:24.925Z,12.33
2022-11-08T12:38:09.992Z,12.44
2022-11-08T12:40:55.176Z,12.27
2022-11-08T12:43:41.855Z,12.22
2022-11-08T12:46:09.794Z,12.33
2022-11-08T12:48:48.691Z,12.43
2022-11-08T12:51:18.275Z,12.25
2022-11-08T12:53:50.440Z,12.14
2022-11-08T12:56:25.093Z,12.15
2022-11-08T12:58:52.475Z,12.26
2022-11-08T13:01:19.878Z,12.34
2022-11-08T13:03:58.632Z,12.28
2022-11-08T13:06:46.293Z,12.33
2022-11-08T13:09:19.401Z,12.32
2022-11-08T13:12:06.133Z,12.29
2022-11-08T13:14:34.968Z,12.33
2022-11-08T13:17:17.217Z,12.50
2022-11-08T13:19:46.644Z,12.55
2022-11-08T13:22:31.457Z,12.58
2022-11-08T13:25:21.140Z,12.47
2022-11-08T13:27:48.481Z,12.54
2022-11-08T13:30:15.277Z,12.51
2022-11-08T13:32:54.053Z,12.48
2022-11-08T13:35:23.773Z,12.47
2022-11-08T13:38:08.997Z,12.43
2022-11-08T13:40:41.453Z,12.41
2022-11-08T13:43:20.718Z,12.49
2022-11-08T13:45:47.307Z,12.55
2022-11-08T13:48:33.920Z,12.52
2022-11-08T13:51:18.997Z,12.66
2022-11-08T13:53:51.413Z,12.63
2022-11-08T13:56:54.189Z,12.64
2022-11-08T13:59:32.812Z,12.53
2022-11-08T14:02:03.727Z,12.55
2022-11-08T14:04:40.200Z,12.55
2022-11-08T14:07:06.778Z,12.47
2022-11-08T14:09:39.295Z,12.44
2022-11-08T14:12:28.998Z,12.39
2022-11-08T14:15:14.408Z,12.32
2022-11-08T14:17:47.776Z,12.24
2022-11-08T14:20:35.666Z,12.28
2022-11-08T14:23:09.802Z,12.17
2022-11-08T14:25:36.266Z,12.11
2022-11-08T14:28:02.669Z,12.09
2022-11-08T14:30:29.064Z,12.03
2022-11-08T14:33:05.465Z,12.06
2022-11-08T14:35:31.954Z,12.02
2022-11-08T14:37:58.410Z,12.01
2022-11-08T14:40:26.466Z,12.05
2022-11-08T14:42:53.023Z,12.05
2022-11-08T14:45:25.450Z,11.99
2022-11-08T14:48:12.637Z,11.99
2022-11-08T14:50:39.079Z,12.05
2022-11-08T14:53:21.978Z,12.02
2022-11-08T14:55:53.195Z,12.03
2022-11-08T14:58:19.907Z,12.04
2022-11-08T15:00:46.605Z,12.00
2022-11-08T15:03:17.348Z,11.95
2022-11-08T15:06:12.545Z,11.97
2022-11-08T15:08:51.163Z,11.94
2022-11-08T15:11:28.589Z,11.91
2022-11-08T15:13:59.284Z,11.91
2022-11-08T15:16:25.777Z,11.87
2022-11-08T15:18:52.169Z,11.86
2022-11-08T15:21:31.251Z,11.84
2022-11-08T15:24:14.256Z,11.83
2022-11-08T15:26:40.815Z,11.81
2022-11-08T15:29:13.339Z,11.87
2022-11-08T15:32:09.297Z,11.82
2022-11-08T15:34:39.110Z,11.77
2022-11-08T15:37:21.933Z,11.71
2022-11-08T15:39:48.377Z,11.71
2022-11-08T15:42:15.378Z,11.68
2022-11-08T15:45:01.417Z,11.62
2022-11-08T15:47:43.234Z,11.48
2022-11-08T15:50:17.793Z,11.48
2022-11-08T15:52:44.605Z,11.51
2022-11-08T15:55:21.341Z,11.52
2022-11-08T15:57:47.974Z,11.53
2022-11-08T16:00:15.609Z,11.51
2022-11-08T16:02:42.159Z,11.60
2022-11-08T16:05:15.953Z,11.58
2022-11-08T16:07:43.435Z,11.56
2022-11-08T16:10:10.251Z,11.59
2022-11-08T16:12:37.676Z,11.63
2022-11-08T16:15:04.456Z,11.60
2022-11-08T16:17:30.961Z,11.58
2022-11-08T16:19:57.370Z,11.64
2022-11-08T16:22:23.790Z,11.63
2022-11-08T16:24:50.190Z,11.63
2022-11-08T16:27:16.623Z,11.64
2022-11-08T16:29:43.067Z,11.65
2022-11-08T16:32:09.493Z,11.71
2022-11-08T16:34:35.925Z,11.70
2022-11-08T16:37:02.317Z,11.72
2022-11-08T16:39:29.275Z,11.72
2022-11-08T16:41:55.707Z,11.69
2022-11-08T16:44:23.165Z,11.66
2022-11-08T16:46:49.587Z,11.65
2022-11-08T16:49:20.310Z,11.67
2022-11-08T16:51:46.779Z,11.67
2022-11-08T16:54:15.218Z,11.72
2022-11-08T16:56:41.714Z,11.74
2022-11-08T16:59:08.101Z,11.71
2022-11-08T17:01:34.694Z,11.73
2022-11-08T17:04:01.092Z,11.73
2022-11-08T17:06:27.542Z,11.76
2022-11-08T17:08:54.045Z,11.77
2022-11-08T17:11:21.361Z,11.86
2022-11-08T17:13:48.368Z,11.82
2022-11-08T17:16:15.262Z,11.78
2022-11-08T17:18:41.797Z,11.75
2022-11-08T17:21:30.354Z,11.79
2022-11-08T17:23:55.083Z,11.81
2022-11-08T17:26:21.532Z,11.78
2022-11-08T17:28:47.935Z,11.78
2022-11-08T17:31:18.782Z,11.77
2022-11-08T17:33:45.227Z,11.79
2022-11-08T17:36:12.702Z,11.78
2022-11-08T17:38:39.961Z,11.79
2022-11-08T17:41:07.653Z,11.76
2022-11-08T17:43:35.086Z,11.79
2022-11-08T17:46:02.078Z,11.84
2022-11-08T17:48:28.666Z,11.84
2022-11-08T17:50:55.236Z,11.84
2022-11-08T17:53:21.994Z,11.87
2022-11-08T17:55:54.368Z,11.87
2022-11-08T17:58:21.177Z,11.86
2022-11-08T18:00:50.876Z,11.90
2022-11-08T18:03:17.626Z,11.93
2022-11-08T18:05:54.377Z,11.94
2022-11-08T18:08:26.498Z,11.94
2022-11-08T18:10:53.399Z,11.89
2022-11-08T18:13:20.538Z,11.89
2022-11-08T18:15:47.549Z,11.94
2022-11-08T18:18:14.093Z,11.91
2022-11-08T18:20:40.631Z,11.85
2022-11-08T18:23:07.100Z,11.84
2022-11-08T18:25:34.111Z,11.86
2022-11-08T18:28:00.537Z,11.89
2022-11-08T18:30:27.044Z,11.91
2022-11-08T18:32:53.501Z,11.88
2022-11-08T18:35:19.966Z,11.85
2022-11-08T18:37:46.430Z,11.87
2022-11-08T18:40:13.461Z,11.87
2022-11-08T18:42:40.044Z,11.93
2022-11-08T18:45:06.732Z,11.94
2022-11-08T18:47:33.339Z,11.88
2022-11-08T18:50:01.999Z,11.82
2022-11-08T18:52:29.211Z,11.78
2022-11-08T18:54:55.869Z,11.75
2022-11-08T18:57:22.648Z,11.74
2022-11-08T18:59:49.054Z,11.72
2022-11-08T19:02:15.519Z,11.76
2022-11-08T19:04:41.925Z,11.71
2022-11-08T19:07:08.477Z,11.72
2022-11-08T19:09:35.479Z,11.71
2022-11-08T19:12:05.864Z,11.77
2022-11-08T19:14:32.814Z,11.70
2022-11-08T19:16:59.247Z,11.77
2022-11-08T19:19:25.719Z,11.77
2022-11-08T19:21:52.120Z,11.85
2022-11-08T19:24:18.864Z,11.72
2022-11-08T19:26:45.308Z,11.63
2022-11-08T19:29:13.371Z,11.56
2022-11-08T19:31:40.052Z,11.60
2022-11-08T19:34:06.502Z,11.68
2022-11-08T19:36:33.205Z,11.65
2022-11-08T19:38:59.710Z,11.65
2022-11-08T19:41:26.893Z,11.69
2022-11-08T19:43:53.534Z,11.72
2022-11-08T19:46:20.897Z,11.75
2022-11-08T19:48:48.164Z,11.72
2022-11-08T19:51:16.363Z,11.71
2022-11-08T19:53:42.954Z,11.71
2022-11-08T19:56:10.423Z,11.66
2022-11-08T19:58:37.251Z,11.69
2022-11-08T20:01:31.167Z,11.64
2022-11-08T20:03:57.987Z,11.57
2022-11-08T20:06:24.454Z,11.68
2022-11-08T20:08:51.561Z,11.75
2022-11-08T20:11:19.024Z,11.75
2022-11-08T20:13:45.563Z,11.82
2022-11-08T20:16:15.966Z,11.85
2022-11-08T20:18:42.602Z,11.80
2022-11-08T20:21:09.546Z,11.77
2022-11-08T20:23:36.133Z,11.77
2022-11-08T20:26:03.543Z,11.78
2022-11-08T20:28:30.047Z,11.83
2022-11-08T20:31:06.558Z,11.98
2022-11-08T20:33:33.655Z,12.09
2022-11-08T20:36:11.040Z,12.06
2022-11-08T20:38:37.585Z,12.04
2022-11-08T20:41:04.579Z,11.97
2022-11-08T20:43:31.054Z,11.97
2022-11-08T20:46:04.527Z,11.91
2022-11-08T20:48:31.099Z,11.87
2022-11-08T20:50:58.740Z,11.97
2022-11-08T20:53:25.456Z,11.94
2022-11-08T20:55:58.062Z,11.94
2022-11-08T20:58:25.255Z,11.92
2022-11-08T21:00:58.191Z,12.03
2022-11-08T21:03:25.255Z,12.08
2022-11-08T21:05:52.429Z,12.09
2022-11-08T21:11:05.860Z,12.23
2022-11-08T21:13:33.327Z,12.29
2022-11-08T21:16:19.759Z,12.29
2022-11-08T21:18:47.176Z,12.30
2022-11-08T21:21:14.622Z,12.21
2022-11-08T21:23:41.869Z,12.25
2022-11-08T21:26:08.699Z,12.31
2022-11-08T21:28:35.158Z,12.33
2022-11-08T21:31:01.951Z,12.31
2022-11-08T21:33:28.378Z,12.31
2022-11-08T21:35:55.378Z,12.25
2022-11-08T21:38:22.009Z,12.23
2022-11-08T21:40:48.728Z,12.16
2022-11-08T21:43:15.301Z,12.08
2022-11-08T21:45:41.779Z,12.08
2022-11-08T21:48:14.057Z,12.02
2022-11-08T21:50:41.751Z,11.93
2022-11-08T21:53:08.418Z,11.95
2022-11-08T21:55:35.102Z,11.95
2022-11-08T21:58:01.819Z,11.92
2022-11-08T22:00:28.658Z,11.94
2022-11-08T22:02:55.534Z,11.90
2022-11-08T22:05:22.017Z,11.83
2022-11-08T22:07:48.407Z,11.86
2022-11-08T22:10:14.843Z,11.85
2022-11-08T22:12:41.265Z,11.83
2022-11-08T22:15:08.265Z,11.79
2022-11-08T22:17:34.750Z,11.85
2022-11-08T22:20:01.272Z,11.80
2022-11-08T22:22:27.710Z,11.80
2022-11-08T22:24:55.604Z,11.83
2022-11-08T22:27:22.078Z,11.89
2022-11-08T22:29:48.528Z,11.87
2022-11-08T22:32:14.977Z,11.89
2022-11-08T22:34:41.387Z,11.84
2022-11-08T22:37:07.803Z,11.83
2022-11-08T22:39:34.207Z,11.78
2022-11-08T22:42:00.659Z,11.74
2022-11-08T22:44:27.090Z,11.76
2022-11-08T22:46:53.586Z,11.75
2022-11-08T22:49:20.025Z,11.73
2022-11-08T22:51:46.552Z,11.78
2022-11-08T22:54:13.121Z,11.79
2022-11-08T22:56:40.437Z,11.76
2022-11-08T22:59:06.966Z,11.76
2022-11-08T23:01:33.840Z,11.80
2022-11-08T23:04:00.333Z,11.78
2022-11-08T23:06:26.824Z,11.70
2022-11-08T23:08:53.250Z,11.74
2022-11-08T23:11:38.306Z,11.69
2022-11-08T23:14:23.445Z,11.75
2022-11-08T23:16:49.855Z,11.72
2022-11-08T23:19:36.042Z,11.71
2022-11-08T23:22:21.662Z,11.74
2022-11-08T23:24:48.098Z,11.65
2022-11-08T23:27:34.337Z,11.60
2022-11-08T23:30:19.552Z,11.64
2022-11-08T23:32:46.962Z,11.71
2022-11-08T23:35:13.499Z,11.71
2022-11-08T23:37:40.060Z,11.70
2022-11-08T23:40:25.641Z,11.63
2022-11-08T23:43:23.996Z,11.56
2022-11-08T23:45:50.413Z,11.45
2022-11-08T23:48:16.914Z,11.39
2022-11-08T23:50:47.061Z,11.31
2022-11-08T23:53:13.494Z,11.33
2022-11-08T23:55:39.890Z,11.30
2022-11-08T23:58:06.331Z,11.24
